sensor_id;sensor_type;location;lat;lon;timestamp;pressure;altitude;pressure_sealevel;temperature;humidity
12969;BME280;6549;53.128;8.182;2024-03-23T00:54:57;100623.06;;;7.40;100.00
12969;BME280;6549;53.128;8.182;2024-03-23T00:57:57;100615.34;;;7.45;100.00
12969;BME280;6549;53.128;8.182;2024-03-23T01:00:58;100602.81;;;7.44;100.00
12969;BME280;6549;53.128;8.182;2024-03-23T01:03:58;100611.97;;;7.29;100.00
12969;BME280;6549;53.128;8.182;2024-03-23T01:06:59;100601.50;;;7.35;100.00
12969;BME280;6549;53.128;8.182;2024-03-23T01:09:59;100607.09;;;7.42;100.00
12969;BME280;6549;53.128;8.182;2024-03-23T01:13:00;100601.56;;;7.38;100.00
12969;BME280;6549;53.128;8.182;2024-03-23T01:16:00;100599.69;;;7.42;100.00
12969;BME280;6549;53.128;8.182;2024-03-23T01:19:00;100589.59;;;7.46;100.00
12969;BME280;6549;53.128;8.182;2024-03-23T01:22:01;100585.69;;;7.47;100.00
12969;BME280;6549;53.128;8.182;2024-03-23T01:25:01;100588.22;;;7.33;100.00
12969;BME280;6549;53.128;8.182;2024-03-23T01:28:01;100578.44;;;7.32;100.00
12969;BME280;6549;53.128;8.182;2024-03-23T01:31:02;100593.06;;;7.43;100.00
12969;BME280;6549;53.128;8.182;2024-03-23T01:34:02;100575.47;;;7.44;100.00
12969;BME280;6549;53.128;8.182;2024-03-23T01:37:03;100574.28;;;7.42;100.00
12969;BME280;6549;53.128;8.182;2024-03-23T01:40:03;100562.97;;;7.43;100.00
12969;BME280;6549;53.128;8.182;2024-03-23T01:43:07;100556.81;;;7.50;100.00
12969;BME280;6549;53.128;8.182;2024-03-23T01:46:10;100555.94;;;7.42;100.00
12969;BME280;6549;53.128;8.182;2024-03-23T01:49:11;100570.78;;;7.45;100.00
12969;BME280;6549;53.128;8.182;2024-03-23T01:52:11;100569.47;;;7.35;100.00
12969;BME280;6549;53.128;8.182;2024-03-23T01:55:12;100555.88;;;7.39;100.00
12969;BME280;6549;53.128;8.182;2024-03-23T01:58:12;100554.34;;;7.41;100.00
12969;BME280;6549;53.128;8.182;2024-03-23T02:01:13;100554.78;;;7.43;100.00
12969;BME280;6549;53.128;8.182;2024-03-23T02:04:13;100540.94;;;7.33;100.00
12969;BME280;6549;53.128;8.182;2024-03-23T02:07:14;100536.59;;;7.28;100.00
12969;BME280;6549;53.128;8.182;2024-03-23T02:10:14;100534.72;;;7.36;100.00
12969;BME280;6549;53.128;8.182;2024-03-23T02:13:15;100536.59;;;7.28;100.00
12969;BME280;6549;53.128;8.182;2024-03-23T02:16:16;100534.28;;;7.30;100.00
12969;BME280;6549;53.128;8.182;2024-03-23T02:19:16;100529.22;;;7.32;100.00
12969;BME280;6549;53.128;8.182;2024-03-23T02:22:16;100528.88;;;7.34;100.00
12969;BME280;6549;53.128;8.182;2024-03-23T02:25:17;100521.47;;;7.34;100.00
12969;BME280;6549;53.128;8.182;2024-03-23T02:28:17;100511.63;;;7.30;100.00
12969;BME280;6549;53.128;8.182;2024-03-23T02:31:17;100505.25;;;7.22;100.00
12969;BME280;6549;53.128;8.182;2024-03-23T02:34:18;100502.84;;;7.17;100.00
12969;BME280;6549;53.128;8.182;2024-03-23T02:37:18;100499.38;;;7.20;100.00
12969;BME280;6549;53.128;8.182;2024-03-23T02:40:20;100494.06;;;7.31;100.00
12969;BME280;6549;53.128;8.182;2024-03-23T02:43:20;100493.97;;;7.23;100.00
12969;BME280;6549;53.128;8.182;2024-03-23T02:46:21;100483.31;;;7.15;100.00
12969;BME280;6549;53.128;8.182;2024-03-23T02:49:21;100484.13;;;7.19;100.00
12969;BME280;6549;53.128;8.182;2024-03-23T02:52:22;100484.63;;;7.25;100.00
12969;BME280;6549;53.128;8.182;2024-03-23T02:55:22;100486.56;;;7.24;100.00
12969;BME280;6549;53.128;8.182;2024-03-23T02:58:22;100465.09;;;7.26;100.00
12969;BME280;6549;53.128;8.182;2024-03-23T03:01:23;100470.50;;;7.22;100.00
12969;BME280;6549;53.128;8.182;2024-03-23T03:04:23;100457.97;;;7.18;100.00
12969;BME280;6549;53.128;8.182;2024-03-23T03:07:23;100458.22;;;7.09;100.00
12969;BME280;6549;53.128;8.182;2024-03-23T03:10:24;100463.75;;;7.13;100.00
12969;BME280;6549;53.128;8.182;2024-03-23T03:13:24;100457.81;;;7.07;100.00
12969;BME280;6549;53.128;8.182;2024-03-23T03:16:24;100454.19;;;7.00;100.00
12969;BME280;6549;53.128;8.182;2024-03-23T03:19:25;100449.63;;;7.07;100.00
12969;BME280;6549;53.128;8.182;2024-03-23T03:22:25;100452.28;;;7.04;100.00
12969;BME280;6549;53.128;8.182;2024-03-23T03:25:26;100453.09;;;7.04;100.00
12969;BME280;6549;53.128;8.182;2024-03-23T03:28:26;100443.59;;;6.95;100.00
12969;BME280;6549;53.128;8.182;2024-03-23T03:31:30;100450.94;;;6.91;100.00
12969;BME280;6549;53.128;8.182;2024-03-23T03:34:31;100437.78;;;7.00;100.00
12969;BME280;6549;53.128;8.182;2024-03-23T03:37:31;100431.19;;;7.01;100.00
12969;BME280;6549;53.128;8.182;2024-03-23T03:40:32;100431.81;;;6.91;100.00
12969;BME280;6549;53.128;8.182;2024-03-23T03:43:32;100429.88;;;6.91;100.00
12969;BME280;6549;53.128;8.182;2024-03-23T03:46:33;100422.06;;;6.90;100.00
12969;BME280;6549;53.128;8.182;2024-03-23T03:49:33;100417.13;;;6.99;100.00
12969;BME280;6549;53.128;8.182;2024-03-23T03:52:33;100425.50;;;6.87;100.00
12969;BME280;6549;53.128;8.182;2024-03-23T03:55:34;100421.50;;;6.77;100.00
12969;BME280;6549;53.128;8.182;2024-03-23T03:58:34;100420.69;;;6.76;100.00
12969;BME280;6549;53.128;8.182;2024-03-23T04:01:35;100428.94;;;6.80;100.00
12969;BME280;6549;53.128;8.182;2024-03-23T04:04:36;100424.22;;;6.77;100.00
12969;BME280;6549;53.128;8.182;2024-03-23T04:07:36;100422.50;;;6.69;100.00
12969;BME280;6549;53.128;8.182;2024-03-23T04:10:36;100418.09;;;6.61;100.00
12969;BME280;6549;53.128;8.182;2024-03-23T04:13:37;100413.88;;;6.63;100.00
12969;BME280;6549;53.128;8.182;2024-03-23T04:16:37;100405.69;;;6.63;100.00
12969;BME280;6549;53.128;8.182;2024-03-23T04:19:37;100418.91;;;6.61;100.00
12969;BME280;6549;53.128;8.182;2024-03-23T04:22:38;100418.06;;;6.57;100.00
12969;BME280;6549;53.128;8.182;2024-03-23T04:25:38;100419.19;;;6.56;100.00
12969;BME280;6549;53.128;8.182;2024-03-23T04:28:39;100414.19;;;6.58;100.00
12969;BME280;6549;53.128;8.182;2024-03-23T04:31:39;100406.28;;;6.53;100.00
12969;BME280;6549;53.128;8.182;2024-03-23T04:34:40;100413.94;;;6.44;100.00
12969;BME280;6549;53.128;8.182;2024-03-23T04:37:40;100407.59;;;6.37;100.00
12969;BME280;6549;53.128;8.182;2024-03-23T04:40:41;100402.84;;;6.33;100.00
12969;BME280;6549;53.128;8.182;2024-03-23T04:43:41;100409.53;;;6.36;100.00
12969;BME280;6549;53.128;8.182;2024-03-23T04:46:41;100404.72;;;6.29;100.00
12969;BME280;6549;53.128;8.182;2024-03-23T04:49:42;100398.88;;;6.27;100.00
12969;BME280;6549;53.128;8.182;2024-03-23T04:52:42;100391.53;;;6.31;100.00
12969;BME280;6549;53.128;8.182;2024-03-23T04:55:43;100381.00;;;6.33;100.00
12969;BME280;6549;53.128;8.182;2024-03-23T04:58:44;100381.81;;;6.34;100.00
12969;BME280;6549;53.128;8.182;2024-03-23T05:01:44;100389.00;;;6.19;100.00
12969;BME280;6549;53.128;8.182;2024-03-23T05:04:44;100378.47;;;6.21;100.00
12969;BME280;6549;53.128;8.182;2024-03-23T05:07:45;100378.13;;;6.23;100.00
12969;BME280;6549;53.128;8.182;2024-03-23T05:10:45;100378.84;;;6.20;100.00
12969;BME280;6549;53.128;8.182;2024-03-23T05:13:46;100373.72;;;6.15;100.00
12969;BME280;6549;53.128;8.182;2024-03-23T05:16:46;100372.13;;;6.14;100.00
12969;BME280;6549;53.128;8.182;2024-03-23T05:19:46;100365.84;;;6.10;100.00
12969;BME280;6549;53.128;8.182;2024-03-23T05:22:47;100368.97;;;6.12;100.00
12969;BME280;6549;53.128;8.182;2024-03-23T05:25:47;100368.81;;;6.01;100.00
12969;BME280;6549;53.128;8.182;2024-03-23T05:28:47;100374.25;;;6.01;100.00
12969;BME280;6549;53.128;8.182;2024-03-23T05:31:49;100372.94;;;6.14;100.00
12969;BME280;6549;53.128;8.182;2024-03-23T05:34:50;100367.28;;;6.04;100.00
12969;BME280;6549;53.128;8.182;2024-03-23T05:37:55;100376.59;;;6.03;100.00
12969;BME280;6549;53.128;8.182;2024-03-23T05:41:00;100363.50;;;6.12;100.00
12969;BME280;6549;53.128;8.182;2024-03-23T05:44:00;100354.38;;;6.01;100.00
12969;BME280;6549;53.128;8.182;2024-03-23T05:47:00;100356.81;;;6.06;100.00
12969;BME280;6549;53.128;8.182;2024-03-23T05:50:01;100364.78;;;5.95;100.00
12969;BME280;6549;53.128;8.182;2024-03-23T05:53:02;100362.06;;;5.95;100.00
12969;BME280;6549;53.128;8.182;2024-03-23T05:56:04;100359.34;;;5.95;100.00
12969;BME280;6549;53.128;8.182;2024-03-23T05:59:05;100372.53;;;6.16;100.00
12969;BME280;6549;53.128;8.182;2024-03-23T06:02:06;100363.13;;;6.89;100.00
12969;BME280;6549;53.128;8.182;2024-03-23T06:05:07;100360.53;;;8.10;100.00
12969;BME280;6549;53.128;8.182;2024-03-23T06:08:07;100365.03;;;9.95;100.00
12969;BME280;6549;53.128;8.182;2024-03-23T06:11:09;100375.25;;;10.54;100.00
12969;BME280;6549;53.128;8.182;2024-03-23T06:14:10;100368.72;;;11.42;100.00
12969;BME280;6549;53.128;8.182;2024-03-23T06:17:10;100368.34;;;12.09;100.00
12969;BME280;6549;53.128;8.182;2024-03-23T06:20:11;100362.66;;;12.31;100.00
12969;BME280;6549;53.128;8.182;2024-03-23T06:23:12;100366.91;;;13.51;100.00
12969;BME280;6549;53.128;8.182;2024-03-23T06:26:14;100370.94;;;14.00;93.14
12969;BME280;6549;53.128;8.182;2024-03-23T06:29:15;100371.94;;;14.13;86.97
12969;BME280;6549;53.128;8.182;2024-03-23T06:32:15;100365.22;;;14.41;84.60
12969;BME280;6549;53.128;8.182;2024-03-23T06:35:16;100369.00;;;14.24;84.77
12969;BME280;6549;53.128;8.182;2024-03-23T06:38:16;100366.16;;;13.77;85.33
12969;BME280;6549;53.128;8.182;2024-03-23T06:41:17;100373.03;;;15.28;76.14
12969;BME280;6549;53.128;8.182;2024-03-23T06:44:17;100365.75;;;15.38;72.97
12969;BME280;6549;53.128;8.182;2024-03-23T06:47:17;100362.44;;;14.41;78.84
12969;BME280;6549;53.128;8.182;2024-03-23T06:50:18;100358.41;;;13.04;95.76
12969;BME280;6549;53.128;8.182;2024-03-23T06:53:18;100358.66;;;11.87;100.00
12969;BME280;6549;53.128;8.182;2024-03-23T06:56:18;100353.97;;;11.84;100.00
12969;BME280;6549;53.128;8.182;2024-03-23T06:59:19;100357.91;;;10.96;100.00
12969;BME280;6549;53.128;8.182;2024-03-23T07:02:19;100355.53;;;10.98;100.00
12969;BME280;6549;53.128;8.182;2024-03-23T07:05:19;100351.28;;;10.72;100.00
12969;BME280;6549;53.128;8.182;2024-03-23T07:08:20;100350.94;;;10.31;100.00
12969;BME280;6549;53.128;8.182;2024-03-23T07:11:22;100357.97;;;10.68;100.00
12969;BME280;6549;53.128;8.182;2024-03-23T07:14:23;100350.44;;;10.93;100.00
12969;BME280;6549;53.128;8.182;2024-03-23T07:17:24;100352.88;;;10.59;100.00
12969;BME280;6549;53.128;8.182;2024-03-23T07:20:24;100353.69;;;10.56;100.00
12969;BME280;6549;53.128;8.182;2024-03-23T07:23:25;100346.59;;;10.59;100.00
12969;BME280;6549;53.128;8.182;2024-03-23T07:26:25;100345.38;;;10.88;100.00
12969;BME280;6549;53.128;8.182;2024-03-23T07:29:25;100350.81;;;11.06;100.00
12969;BME280;6549;53.128;8.182;2024-03-23T07:32:26;100344.56;;;10.95;100.00
12969;BME280;6549;53.128;8.182;2024-03-23T07:35:26;100337.91;;;10.85;100.00
12969;BME280;6549;53.128;8.182;2024-03-23T07:38:27;100340.13;;;11.22;100.00
12969;BME280;6549;53.128;8.182;2024-03-23T07:41:28;100341.88;;;10.70;100.00
12969;BME280;6549;53.128;8.182;2024-03-23T07:44:28;100342.50;;;11.23;100.00
12969;BME280;6549;53.128;8.182;2024-03-23T07:47:29;100340.59;;;11.10;100.00
12969;BME280;6549;53.128;8.182;2024-03-23T07:50:29;100341.03;;;10.80;100.00
12969;BME280;6549;53.128;8.182;2024-03-23T07:53:31;100338.38;;;11.56;100.00
12969;BME280;6549;53.128;8.182;2024-03-23T07:56:31;100340.69;;;10.78;100.00
12969;BME280;6549;53.128;8.182;2024-03-23T07:59:32;100336.63;;;11.11;100.00
12969;BME280;6549;53.128;8.182;2024-03-23T08:02:34;100342.69;;;10.56;100.00
12969;BME280;6549;53.128;8.182;2024-03-23T08:05:34;100332.50;;;10.25;100.00
12969;BME280;6549;53.128;8.182;2024-03-23T08:08:35;100339.16;;;9.99;100.00
12969;BME280;6549;53.128;8.182;2024-03-23T08:11:35;100330.91;;;10.52;100.00
12969;BME280;6549;53.128;8.182;2024-03-23T08:14:36;100338.75;;;10.08;100.00
12969;BME280;6549;53.128;8.182;2024-03-23T08:17:36;100328.94;;;10.60;100.00
12969;BME280;6549;53.128;8.182;2024-03-23T08:20:36;100326.94;;;10.78;100.00
12969;BME280;6549;53.128;8.182;2024-03-23T08:23:37;100332.44;;;10.74;100.00
12969;BME280;6549;53.128;8.182;2024-03-23T08:26:40;100329.31;;;10.65;100.00
12969;BME280;6549;53.128;8.182;2024-03-23T08:29:41;100331.66;;;10.67;100.00
12969;BME280;6549;53.128;8.182;2024-03-23T08:32:41;100327.78;;;10.50;100.00
12969;BME280;6549;53.128;8.182;2024-03-23T08:35:42;100337.22;;;10.24;100.00
12969;BME280;6549;53.128;8.182;2024-03-23T08:38:42;100343.47;;;9.89;100.00
12969;BME280;6549;53.128;8.182;2024-03-23T08:41:43;100328.19;;;9.99;100.00
12969;BME280;6549;53.128;8.182;2024-03-23T08:44:47;100321.47;;;9.79;100.00
12969;BME280;6549;53.128;8.182;2024-03-23T08:47:49;100323.44;;;9.68;100.00
12969;BME280;6549;53.128;8.182;2024-03-23T08:51:07;100315.16;;;9.54;100.00
12969;BME280;6549;53.128;8.182;2024-03-23T08:54:08;100316.00;;;10.11;100.00
12969;BME280;6549;53.128;8.182;2024-03-23T08:57:09;100322.25;;;10.64;100.00
12969;BME280;6549;53.128;8.182;2024-03-23T09:00:09;100313.66;;;10.13;100.00
12969;BME280;6549;53.128;8.182;2024-03-23T09:03:11;100313.63;;;9.70;100.00
12969;BME280;6549;53.128;8.182;2024-03-23T09:06:13;100312.88;;;9.98;100.00
12969;BME280;6549;53.128;8.182;2024-03-23T09:09:14;100320.72;;;9.82;100.00
12969;BME280;6549;53.128;8.182;2024-03-23T09:12:14;100306.53;;;9.52;100.00
12969;BME280;6549;53.128;8.182;2024-03-23T09:15:15;100315.13;;;9.36;100.00
12969;BME280;6549;53.128;8.182;2024-03-23T09:18:16;100312.75;;;9.27;100.00
12969;BME280;6549;53.128;8.182;2024-03-23T09:21:16;100320.19;;;9.34;100.00
12969;BME280;6549;53.128;8.182;2024-03-23T09:24:16;100309.94;;;9.10;100.00
12969;BME280;6549;53.128;8.182;2024-03-23T09:27:17;100312.44;;;9.57;100.00
12969;BME280;6549;53.128;8.182;2024-03-23T09:30:17;100315.97;;;9.58;100.00
12969;BME280;6549;53.128;8.182;2024-03-23T09:33:17;100313.25;;;9.89;100.00
12969;BME280;6549;53.128;8.182;2024-03-23T09:36:18;100308.97;;;9.99;100.00
12969;BME280;6549;53.128;8.182;2024-03-23T09:39:19;100306.97;;;9.92;100.00
12969;BME280;6549;53.128;8.182;2024-03-23T09:42:19;100312.09;;;10.12;100.00
12969;BME280;6549;53.128;8.182;2024-03-23T09:45:22;100312.13;;;10.26;100.00
12969;BME280;6549;53.128;8.182;2024-03-23T09:48:22;100315.63;;;9.98;100.00
12969;BME280;6549;53.128;8.182;2024-03-23T09:51:22;100312.09;;;10.08;100.00
12969;BME280;6549;53.128;8.182;2024-03-23T09:54:23;100306.59;;;10.36;100.00
12969;BME280;6549;53.128;8.182;2024-03-23T09:57:23;100311.31;;;10.43;100.00
12969;BME280;6549;53.128;8.182;2024-03-23T10:00:23;100312.13;;;10.15;100.00
12969;BME280;6549;53.128;8.182;2024-03-23T10:03:24;100307.78;;;10.07;100.00
12969;BME280;6549;53.128;8.182;2024-03-23T10:06:24;100305.03;;;9.93;100.00
12969;BME280;6549;53.128;8.182;2024-03-23T10:09:25;100293.31;;;10.17;100.00
12969;BME280;6549;53.128;8.182;2024-03-23T10:12:26;100297.59;;;10.11;100.00
12969;BME280;6549;53.128;8.182;2024-03-23T10:15:26;100305.03;;;10.11;100.00
12969;BME280;6549;53.128;8.182;2024-03-23T10:18:26;100299.56;;;10.21;100.00
12969;BME280;6549;53.128;8.182;2024-03-23T10:21:28;100294.47;;;10.16;100.00
12969;BME280;6549;53.128;8.182;2024-03-23T10:24:28;100298.00;;;10.20;100.00
12969;BME280;6549;53.128;8.182;2024-03-23T10:27:29;100289.75;;;10.13;100.00
12969;BME280;6549;53.128;8.182;2024-03-23T10:30:29;100283.84;;;10.40;100.00
12969;BME280;6549;53.128;8.182;2024-03-23T10:33:29;100289.34;;;10.43;100.00
12969;BME280;6549;53.128;8.182;2024-03-23T10:36:30;100284.22;;;10.49;100.00
12969;BME280;6549;53.128;8.182;2024-03-23T10:39:41;100282.56;;;10.83;100.00
12969;BME280;6549;53.128;8.182;2024-03-23T10:42:42;100285.31;;;10.72;100.00
12969;BME280;6549;53.128;8.182;2024-03-23T10:45:42;100270.44;;;10.66;100.00
12969;BME280;6549;53.128;8.182;2024-03-23T10:48:43;100282.28;;;10.39;100.00
12969;BME280;6549;53.128;8.182;2024-03-23T10:51:44;100267.19;;;10.89;99.57
12969;BME280;6549;53.128;8.182;2024-03-23T10:54:45;100271.16;;;10.81;100.00
12969;BME280;6549;53.128;8.182;2024-03-23T10:57:54;100272.09;;;10.39;98.65
12969;BME280;6549;53.128;8.182;2024-03-23T11:00:54;100272.81;;;10.61;96.76
12969;BME280;6549;53.128;8.182;2024-03-23T11:03:55;100264.91;;;10.77;98.15
12969;BME280;6549;53.128;8.182;2024-03-23T11:06:55;100256.19;;;10.89;92.71
12969;BME280;6549;53.128;8.182;2024-03-23T11:09:56;100265.91;;;11.18;94.73
12969;BME280;6549;53.128;8.182;2024-03-23T11:12:57;100270.13;;;10.43;93.71
12969;BME280;6549;53.128;8.182;2024-03-23T11:16:12;100270.47;;;10.52;94.45
12969;BME280;6549;53.128;8.182;2024-03-23T11:19:37;100266.59;;;10.32;92.28
12969;BME280;6549;53.128;8.182;2024-03-23T11:25:41;100268.97;;;9.77;88.98
12969;BME280;6549;53.128;8.182;2024-03-23T11:28:41;100274.84;;;10.11;89.93
12969;BME280;6549;53.128;8.182;2024-03-23T11:31:50;100277.56;;;10.14;100.00
12969;BME280;6549;53.128;8.182;2024-03-23T11:34:51;100278.38;;;10.40;100.00
12969;BME280;6549;53.128;8.182;2024-03-23T11:38:11;100272.09;;;10.35;95.12
12969;BME280;6549;53.128;8.182;2024-03-23T11:41:12;100327.41;;;9.95;96.04
12969;BME280;6549;53.128;8.182;2024-03-23T11:44:19;100322.81;;;8.95;100.00
12969;BME280;6549;53.128;8.182;2024-03-23T11:47:19;100335.72;;;8.29;100.00
12969;BME280;6549;53.128;8.182;2024-03-23T11:50:20;100345.31;;;7.68;100.00
12969;BME280;6549;53.128;8.182;2024-03-23T11:53:22;100351.13;;;6.41;100.00
12969;BME280;6549;53.128;8.182;2024-03-23T11:56:23;100352.53;;;6.31;100.00
12969;BME280;6549;53.128;8.182;2024-03-23T11:59:49;100358.28;;;6.26;100.00
12969;BME280;6549;53.128;8.182;2024-03-23T12:02:50;100318.38;;;5.92;100.00
12969;BME280;6549;53.128;8.182;2024-03-23T12:05:51;100303.72;;;6.52;100.00
12969;BME280;6549;53.128;8.182;2024-03-23T12:09:05;100301.59;;;7.35;100.00
12969;BME280;6549;53.128;8.182;2024-03-23T12:15:14;100273.16;;;8.31;100.00
12969;BME280;6549;53.128;8.182;2024-03-23T12:18:15;100272.59;;;8.70;100.00
12969;BME280;6549;53.128;8.182;2024-03-23T12:21:15;100270.28;;;8.75;100.00
12969;BME280;6549;53.128;8.182;2024-03-23T12:24:17;100261.88;;;9.33;100.00
12969;BME280;6549;53.128;8.182;2024-03-23T12:27:17;100267.31;;;9.26;100.00
12969;BME280;6549;53.128;8.182;2024-03-23T12:30:17;100256.00;;;9.45;100.00
12969;BME280;6549;53.128;8.182;2024-03-23T12:33:21;100261.88;;;9.37;100.00
12969;BME280;6549;53.128;8.182;2024-03-23T12:36:21;100269.69;;;9.35;100.00
12969;BME280;6549;53.128;8.182;2024-03-23T12:39:22;100266.59;;;9.51;100.00
12969;BME280;6549;53.128;8.182;2024-03-23T12:42:22;100254.06;;;9.96;100.00
12969;BME280;6549;53.128;8.182;2024-03-23T12:45:22;100247.78;;;9.95;100.00
12969;BME280;6549;53.128;8.182;2024-03-23T12:48:23;100250.16;;;9.86;100.00
12969;BME280;6549;53.128;8.182;2024-03-23T12:51:23;100248.53;;;9.28;100.00
12969;BME280;6549;53.128;8.182;2024-03-23T12:54:24;100265.31;;;9.09;100.00
12969;BME280;6549;53.128;8.182;2024-03-23T12:57:25;100266.41;;;8.87;100.00
12969;BME280;6549;53.128;8.182;2024-03-23T13:00:26;100277.00;;;8.88;100.00
12969;BME280;6549;53.128;8.182;2024-03-23T13:03:26;100264.09;;;9.03;100.00
12969;BME280;6549;53.128;8.182;2024-03-23T13:06:26;100252.41;;;9.17;100.00
12969;BME280;6549;53.128;8.182;2024-03-23T13:09:27;100258.72;;;9.35;100.00
12969;BME280;6549;53.128;8.182;2024-03-23T13:12:28;100259.56;;;9.85;100.00
12969;BME280;6549;53.128;8.182;2024-03-23T13:15:28;100251.31;;;9.99;100.00
12969;BME280;6549;53.128;8.182;2024-03-23T13:18:29;100255.59;;;10.00;100.00
12969;BME280;6549;53.128;8.182;2024-03-23T13:21:29;100257.94;;;9.48;100.00
12969;BME280;6549;53.128;8.182;2024-03-23T13:24:30;100248.19;;;9.69;100.00
12969;BME280;6549;53.128;8.182;2024-03-23T13:27:31;100243.06;;;9.57;100.00
12969;BME280;6549;53.128;8.182;2024-03-23T13:30:31;100240.69;;;10.05;100.00
12969;BME280;6549;53.128;8.182;2024-03-23T13:33:31;100237.56;;;10.27;100.00
12969;BME280;6549;53.128;8.182;2024-03-23T13:36:34;100239.53;;;9.91;100.00
12969;BME280;6549;53.128;8.182;2024-03-23T13:39:36;100246.97;;;10.05;100.00
12969;BME280;6549;53.128;8.182;2024-03-23T13:42:36;100241.13;;;10.00;100.00
12969;BME280;6549;53.128;8.182;2024-03-23T13:45:37;100239.56;;;9.99;99.12
12969;BME280;6549;53.128;8.182;2024-03-23T13:48:38;100242.22;;;10.45;95.89
12969;BME280;6549;53.128;8.182;2024-03-23T13:51:38;100246.19;;;10.22;92.46
12969;BME280;6549;53.128;8.182;2024-03-23T13:54:39;100245.84;;;9.96;89.15
12969;BME280;6549;53.128;8.182;2024-03-23T13:57:39;100260.72;;;9.80;100.00
12969;BME280;6549;53.128;8.182;2024-03-23T14:00:39;100252.50;;;10.16;100.00
12969;BME280;6549;53.128;8.182;2024-03-23T14:03:40;100249.25;;;10.63;100.00
12969;BME280;6549;53.128;8.182;2024-03-23T14:06:40;100248.84;;;10.65;93.45
12969;BME280;6549;53.128;8.182;2024-03-23T14:09:41;100234.31;;;10.68;88.71
12969;BME280;6549;53.128;8.182;2024-03-23T14:12:42;100238.16;;;10.92;91.23
12969;BME280;6549;53.128;8.182;2024-03-23T14:15:42;100249.13;;;10.95;87.30
12969;BME280;6549;53.128;8.182;2024-03-23T14:18:42;100254.66;;;10.88;89.52
12969;BME280;6549;53.128;8.182;2024-03-23T14:21:43;100261.72;;;10.86;87.55
12969;BME280;6549;53.128;8.182;2024-03-23T14:24:43;100259.91;;;10.36;82.21
12969;BME280;6549;53.128;8.182;2024-03-23T14:27:44;100261.88;;;10.40;84.06
12969;BME280;6549;53.128;8.182;2024-03-23T14:30:45;100259.53;;;10.27;83.42
12969;BME280;6549;53.128;8.182;2024-03-23T14:33:45;100253.25;;;10.34;85.65
12969;BME280;6549;53.128;8.182;2024-03-23T14:36:50;100245.44;;;10.22;86.89
12969;BME280;6549;53.128;8.182;2024-03-23T14:39:50;100255.63;;;9.82;90.37
12969;BME280;6549;53.128;8.182;2024-03-23T14:42:51;100250.94;;;9.86;91.53
12969;BME280;6549;53.128;8.182;2024-03-23T14:46:10;100251.69;;;9.66;94.74
12969;BME280;6549;53.128;8.182;2024-03-23T14:49:15;100246.22;;;9.80;95.50
12969;BME280;6549;53.128;8.182;2024-03-23T14:52:18;100245.44;;;10.25;92.75
12969;BME280;6549;53.128;8.182;2024-03-23T14:55:19;100252.50;;;10.16;87.79
12969;BME280;6549;53.128;8.182;2024-03-23T14:58:20;100260.72;;;9.56;83.81
12969;BME280;6549;53.128;8.182;2024-03-23T15:01:20;100257.16;;;9.48;83.77
12969;BME280;6549;53.128;8.182;2024-03-23T15:04:21;100255.50;;;9.08;89.28
12969;BME280;6549;53.128;8.182;2024-03-23T15:07:21;100255.44;;;8.80;93.21
12969;BME280;6549;53.128;8.182;2024-03-23T15:10:21;100250.34;;;8.85;97.59
12969;BME280;6549;53.128;8.182;2024-03-23T15:13:22;100248.91;;;9.27;96.55
12969;BME280;6549;53.128;8.182;2024-03-23T15:16:25;100242.66;;;9.40;95.74
12969;BME280;6549;53.128;8.182;2024-03-23T15:19:26;100233.66;;;9.97;93.26
12969;BME280;6549;53.128;8.182;2024-03-23T15:22:26;100228.97;;;10.04;91.50
12969;BME280;6549;53.128;8.182;2024-03-23T15:25:27;100220.72;;;9.83;93.19
12969;BME280;6549;53.128;8.182;2024-03-23T15:28:28;100223.09;;;9.99;92.35
12969;BME280;6549;53.128;8.182;2024-03-23T15:31:38;100228.19;;;9.75;93.80
12969;BME280;6549;53.128;8.182;2024-03-23T15:34:38;100227.81;;;9.91;94.09
12969;BME280;6549;53.128;8.182;2024-03-23T15:37:39;100224.25;;;9.83;97.43
12969;BME280;6549;53.128;8.182;2024-03-23T15:40:40;100233.66;;;9.61;100.00
12969;BME280;6549;53.128;8.182;2024-03-23T15:43:40;100251.69;;;9.52;100.00
12969;BME280;6549;53.128;8.182;2024-03-23T15:46:41;100258.22;;;8.22;100.00
12969;BME280;6549;53.128;8.182;2024-03-23T15:49:42;100277.00;;;7.76;100.00
12969;BME280;6549;53.128;8.182;2024-03-23T15:52:42;100271.34;;;7.98;100.00
12969;BME280;6549;53.128;8.182;2024-03-23T15:55:43;100243.06;;;7.84;100.00
12969;BME280;6549;53.128;8.182;2024-03-23T15:58:43;100240.19;;;7.66;100.00
12969;BME280;6549;53.128;8.182;2024-03-23T16:01:44;100239.81;;;7.67;100.00
12969;BME280;6549;53.128;8.182;2024-03-23T16:04:45;100230.63;;;7.90;100.00
12969;BME280;6549;53.128;8.182;2024-03-23T16:07:45;100227.56;;;7.98;100.00
12969;BME280;6549;53.128;8.182;2024-03-23T16:10:46;100223.50;;;8.33;100.00
12969;BME280;6549;53.128;8.182;2024-03-23T16:13:46;100215.28;;;8.29;100.00
12969;BME280;6549;53.128;8.182;2024-03-23T16:16:47;100214.53;;;8.39;100.00
12969;BME280;6549;53.128;8.182;2024-03-23T16:19:47;100216.16;;;8.47;100.00
12969;BME280;6549;53.128;8.182;2024-03-23T16:22:47;100209.09;;;8.43;100.00
12969;BME280;6549;53.128;8.182;2024-03-23T16:25:53;100210.59;;;8.37;100.00
12969;BME280;6549;53.128;8.182;2024-03-23T16:28:57;100205.06;;;8.23;100.00
12969;BME280;6549;53.128;8.182;2024-03-23T16:31:57;100199.78;;;8.58;100.00
12969;BME280;6549;53.128;8.182;2024-03-23T16:34:57;100201.59;;;8.33;100.00
12969;BME280;6549;53.128;8.182;2024-03-23T16:37:58;100202.69;;;8.25;100.00
12969;BME280;6549;53.128;8.182;2024-03-23T16:41:02;100199.56;;;8.23;100.00
12969;BME280;6549;53.128;8.182;2024-03-23T16:44:03;100206.63;;;8.27;100.00
12969;BME280;6549;53.128;8.182;2024-03-23T16:47:03;100201.53;;;8.22;100.00
12969;BME280;6549;53.128;8.182;2024-03-23T16:50:04;100203.53;;;8.32;100.00
12969;BME280;6549;53.128;8.182;2024-03-23T16:53:04;100206.59;;;8.24;100.00
12969;BME280;6549;53.128;8.182;2024-03-23T16:56:09;100195.41;;;8.46;100.00